Time;durP1;ratioP1;P1;durP2;ratioP2;P2;SDS_P1;SDS_P2;PMS_P1;PMS_P2;Temp;Humidity;BMP_temperature;BMP_pressure;BME280_temperature;BME280_humidity;BME280_pressure;Samples;Min_cycle;Max_cycle;Signal;HPM_P1;HPM_P2
2024/04/22 00:00:10;;;;;;;;;;;;;;;10.57;72.82;99288.63;5451391;26;19932;-41
2024/04/22 00:02:36;;;;;;;;;;;;;;;10.40;73.18;99284.03;5451337;26;20002;-40
2024/04/22 00:05:01;;;;;;;;;;;;;;;10.27;73.97;99285.69;5451957;26;19925;-41
2024/04/22 00:07:26;;;;;;;;;;;;;;;9.89;74.45;99280.34;5451802;26;19932;-40
2024/04/22 00:09:52;;;;;;;;;;;;;;;9.84;75.40;99290.75;5451741;26;19924;-40
2024/04/22 00:12:17;;;;;;;;;;;;;;;10.24;74.27;99294.06;5452030;26;19924;-40
2024/04/22 00:14:42;;;;;;;;;;;;;;;10.39;73.00;99295.69;5451870;26;20036;-44
2024/04/22 00:17:07;;;;;;;;;;;;;;;10.08;72.86;99295.38;5451806;26;20337;-40
2024/04/22 00:19:32;;;;;;;;;;;;;;;10.18;72.57;99298.41;5451814;26;20363;-41
2024/04/22 00:21:58;;;;;;;;;;;;;;;10.15;73.12;99309.47;5452622;26;20245;-41
2024/04/22 00:24:23;;;;;;;;;;;;;;;10.31;72.66;99312.69;5451240;26;20256;-41
2024/04/22 00:26:48;;;;;;;;;;;;;;;10.54;71.51;99318.28;5451391;26;19974;-41
2024/04/22 00:29:13;;;;;;;;;;;;;;;10.53;72.00;99316.69;5451443;26;19925;-40
2024/04/22 00:31:38;;;;;;;;;;;;;;;10.39;71.94;99322.28;5451593;26;19932;-41
2024/04/22 00:34:04;;;;;;;;;;;;;;;9.89;74.15;99322.84;5451327;26;19924;-41
2024/04/22 00:36:29;;;;;;;;;;;;;;;9.68;74.77;99332.72;5451747;26;19939;-41
2024/04/22 00:38:54;;;;;;;;;;;;;;;9.64;75.20;99334.16;5451273;26;19924;-41
2024/04/22 00:41:20;;;;;;;;;;;;;;;9.76;74.73;99337.00;5451194;26;19925;-41
2024/04/22 00:43:45;;;;;;;;;;;;;;;9.58;74.95;99335.81;5451599;26;19924;-41
2024/04/22 00:46:10;;;;;;;;;;;;;;;9.65;73.62;99340.28;5451318;26;19936;-40
2024/04/22 00:48:36;;;;;;;;;;;;;;;9.75;73.19;99344.16;5451092;26;20319;-40
2024/04/22 00:51:01;;;;;;;;;;;;;;;9.68;73.17;99359.28;5450898;26;19924;-40
2024/04/22 00:53:27;;;;;;;;;;;;;;;9.89;72.83;99354.75;5452052;26;19935;-40
2024/04/22 00:55:54;;;;;;;;;;;;;;;10.12;71.62;99365.72;5450910;26;19928;-41
2024/04/22 00:58:20;;;;;;;;;;;;;;;9.84;72.70;99357.22;5450973;26;19934;-41
2024/04/22 01:00:45;;;;;;;;;;;;;;;9.78;72.82;99353.53;5450793;26;20253;-41
2024/04/22 01:03:11;;;;;;;;;;;;;;;9.83;72.76;99363.56;5451595;26;19935;-41
2024/04/22 01:05:36;;;;;;;;;;;;;;;9.62;73.48;99377.91;5450516;26;19932;-41
2024/04/22 01:08:02;;;;;;;;;;;;;;;9.86;72.85;99374.59;5450993;26;19926;-40
2024/04/22 01:10:27;;;;;;;;;;;;;;;10.08;71.44;99377.81;5450949;26;19924;-40
2024/04/22 01:12:53;;;;;;;;;;;;;;;9.88;72.64;99380.53;5451972;26;20322;-40
2024/04/22 01:15:18;;;;;;;;;;;;;;;10.16;70.94;99387.38;5452356;26;19996;-41
2024/04/22 01:17:44;;;;;;;;;;;;;;;9.76;71.05;99375.00;5452888;26;19930;-40
2024/04/22 01:20:10;;;;;;;;;;;;;;;9.64;71.94;99387.28;5452225;26;19924;-41
2024/04/22 01:22:35;;;;;;;;;;;;;;;10.01;70.69;99387.63;5451913;26;19931;-40
2024/04/22 01:25:01;;;;;;;;;;;;;;;9.87;70.58;99394.00;5451705;26;20150;-41
2024/04/22 01:27:27;;;;;;;;;;;;;;;9.82;70.53;99399.13;5451642;26;19933;-40
2024/04/22 01:29:52;;;;;;;;;;;;;;;9.49;71.59;99392.00;5452111;26;19932;-40
2024/04/22 01:32:18;;;;;;;;;;;;;;;9.93;70.28;99396.66;5452130;26;19925;-40
2024/04/22 01:34:44;;;;;;;;;;;;;;;9.88;71.17;99403.59;5451854;26;20321;-40
2024/04/22 01:37:09;;;;;;;;;;;;;;;9.88;70.71;99403.59;5451606;26;19939;-40
2024/04/22 01:39:35;;;;;;;;;;;;;;;9.62;70.96;99404.47;5451728;26;19932;-40
2024/04/22 01:42:00;;;;;;;;;;;;;;;9.50;71.36;99415.72;5451283;26;20283;-40
2024/04/22 01:44:25;;;;;;;;;;;;;;;9.55;71.05;99402.63;5451403;26;19970;-41
2024/04/22 01:46:50;;;;;;;;;;;;;;;9.42;71.37;99417.75;5451276;26;19924;-40
2024/04/22 01:49:16;;;;;;;;;;;;;;;9.82;70.14;99420.38;5451521;26;19925;-41
2024/04/22 01:51:41;;;;;;;;;;;;;;;10.08;69.54;99435.47;5451674;26;20035;-41
2024/04/22 01:54:06;;;;;;;;;;;;;;;10.05;69.27;99422.59;5451421;26;19924;-41
2024/04/22 01:56:31;;;;;;;;;;;;;;;10.15;68.36;99418.50;5451855;26;19925;-40
2024/04/22 01:58:57;;;;;;;;;;;;;;;10.19;68.85;99426.88;5451536;26;19965;-39
2024/04/22 02:01:23;;;;;;;;;;;;;;;10.16;68.80;99427.28;5451571;26;19934;-40
2024/04/22 02:03:48;;;;;;;;;;;;;;;10.27;69.22;99433.81;5451324;26;20499;-41
2024/04/22 02:06:13;;;;;;;;;;;;;;;10.62;67.95;99436.97;5451384;26;19993;-41
2024/04/22 02:08:39;;;;;;;;;;;;;;;10.76;66.68;99437.75;5451175;26;19932;-41
2024/04/22 02:11:04;;;;;;;;;;;;;;;10.14;69.54;99437.31;5451682;26;19924;-41
2024/04/22 02:13:29;;;;;;;;;;;;;;;10.37;69.26;99428.88;5451658;26;20005;-41
2024/04/22 02:15:54;;;;;;;;;;;;;;;10.81;67.34;99421.94;5451631;26;19932;-39
2024/04/22 02:18:19;;;;;;;;;;;;;;;10.63;67.52;99430.63;5451150;26;20005;-39
2024/04/22 02:20:45;;;;;;;;;;;;;;;10.04;69.73;99439.59;5451152;26;19924;-40
2024/04/22 02:23:10;;;;;;;;;;;;;;;10.18;70.15;99436.69;5451327;26;19997;-41
2024/04/22 02:25:35;;;;;;;;;;;;;;;10.66;68.79;99438.22;5451247;26;20019;-41
2024/04/22 02:28:00;;;;;;;;;;;;;;;10.80;67.97;99443.47;5451364;26;19932;-40
2024/04/22 02:30:26;;;;;;;;;;;;;;;10.63;67.89;99445.78;5451606;26;19936;-40
2024/04/22 02:32:51;;;;;;;;;;;;;;;10.91;66.71;99440.94;5451303;26;19932;-41
2024/04/22 02:35:16;;;;;;;;;;;;;;;11.21;66.17;99437.69;5450494;26;19931;-41
2024/04/22 02:37:41;;;;;;;;;;;;;;;11.24;65.65;99439.94;5451228;26;20260;-41
2024/04/22 02:40:06;;;;;;;;;;;;;;;10.57;67.73;99444.78;5454510;26;19931;-41
2024/04/22 02:42:32;;;;;;;;;;;;;;;10.52;67.61;99442.75;5454784;26;19925;-41
2024/04/22 02:44:57;;;;;;;;;;;;;;;10.29;67.82;99443.19;5454846;26;19924;-40
2024/04/22 02:47:22;;;;;;;;;;;;;;;10.41;67.24;99439.91;5454036;26;19936;-39
2024/04/22 02:49:47;;;;;;;;;;;;;;;10.31;66.73;99457.13;5454406;26;19924;-40
2024/04/22 02:52:13;;;;;;;;;;;;;;;10.56;66.40;99453.78;5454503;26;20355;-40
2024/04/22 02:54:38;;;;;;;;;;;;;;;10.29;67.11;99464.47;5454437;26;20242;-40
2024/04/22 02:57:03;;;;;;;;;;;;;;;10.17;67.27;99458.16;5452282;26;19924;-40
2024/04/22 02:59:29;;;;;;;;;;;;;;;10.14;68.04;99456.72;5453433;26;20021;-40
2024/04/22 03:01:54;;;;;;;;;;;;;;;9.97;69.31;99461.66;5454635;26;19932;-40
2024/04/22 03:04:19;;;;;;;;;;;;;;;10.45;67.64;99470.41;5454152;26;19960;-40
2024/04/22 03:06:46;;;;;;;;;;;;;;;10.49;66.01;99468.94;5453810;26;19974;-40
2024/04/22 03:09:11;;;;;;;;;;;;;;;10.34;67.67;99478.00;5453225;26;20251;-40
2024/04/22 03:11:37;;;;;;;;;;;;;;;9.89;68.63;99479.69;5453399;26;19931;-40
2024/04/22 03:14:02;;;;;;;;;;;;;;;10.11;68.60;99473.13;5452501;26;19932;-40
2024/04/22 03:16:27;;;;;;;;;;;;;;;10.18;68.00;99481.91;5453631;26;19924;-40
2024/04/22 03:18:52;;;;;;;;;;;;;;;10.18;67.18;99484.56;5454321;26;19931;-41
2024/04/22 03:21:18;;;;;;;;;;;;;;;10.07;67.76;99492.31;5453372;26;19952;-39
2024/04/22 03:23:43;;;;;;;;;;;;;;;10.39;66.66;99488.00;5453797;26;19925;-40
2024/04/22 03:26:10;;;;;;;;;;;;;;;10.60;65.99;99494.09;5454110;26;19931;-40
2024/04/22 03:28:37;;;;;;;;;;;;;;;10.59;65.46;99497.81;5454109;26;19942;-41
2024/04/22 03:31:02;;;;;;;;;;;;;;;10.66;64.83;99509.22;5453984;26;20028;-40
2024/04/22 03:33:27;;;;;;;;;;;;;;;10.90;64.32;99513.03;5454919;26;19924;-40
2024/04/22 03:35:52;;;;;;;;;;;;;;;11.02;63.42;99518.50;5452074;26;19924;-39
2024/04/22 03:38:18;;;;;;;;;;;;;;;10.73;64.20;99518.81;5454610;26;19932;-40
2024/04/22 03:40:43;;;;;;;;;;;;;;;10.63;64.71;99526.44;5453354;26;19924;-40
2024/04/22 03:43:09;;;;;;;;;;;;;;;11.11;63.52;99526.03;5453904;26;19925;-40
2024/04/22 03:45:35;;;;;;;;;;;;;;;11.02;63.28;99523.84;5454233;26;19924;-41
2024/04/22 03:50:44;;;;;;;;;;;;;;;10.82;64.72;99535.38;5453523;26;19931;-39
2024/04/22 03:53:09;;;;;;;;;;;;;;;10.94;63.49;99531.03;5454295;26;19925;-41
2024/04/22 03:55:34;;;;;;;;;;;;;;;11.11;63.68;99535.88;5453549;26;19924;-41
2024/04/22 03:57:59;;;;;;;;;;;;;;;11.17;63.19;99534.22;5453715;26;19931;-41
2024/04/22 04:00:25;;;;;;;;;;;;;;;11.70;70.51;99533.91;5453673;26;20224;-41
2024/04/22 04:02:50;;;;;;;;;;;;;;;12.31;61.06;99553.75;5454340;26;19932;-40
2024/04/22 04:05:15;;;;;;;;;;;;;;;12.61;59.52;99553.88;5454203;26;19992;-40
2024/04/22 04:07:40;;;;;;;;;;;;;;;12.61;58.87;99545.06;5454446;26;19932;-41
2024/04/22 04:10:06;;;;;;;;;;;;;;;12.40;58.89;99554.31;5454478;26;19932;-41
2024/04/22 04:12:31;;;;;;;;;;;;;;;12.71;58.07;99564.03;5453928;26;20247;-41
2024/04/22 04:14:56;;;;;;;;;;;;;;;12.80;57.48;99567.25;5454109;26;20371;-41
2024/04/22 04:17:22;;;;;;;;;;;;;;;13.17;56.62;99577.91;5454167;26;19933;-39
2024/04/22 04:19:47;;;;;;;;;;;;;;;13.13;56.60;99582.06;5454271;26;19933;-40
2024/04/22 04:22:12;;;;;;;;;;;;;;;13.43;55.56;99577.59;5453851;26;20356;-42
2024/04/22 04:24:37;;;;;;;;;;;;;;;13.86;55.54;99594.50;5454059;26;19948;-41
2024/04/22 04:27:03;;;;;;;;;;;;;;;14.18;53.87;99591.53;5453607;26;19932;-40
2024/04/22 04:29:28;;;;;;;;;;;;;;;13.91;54.26;99596.50;5453717;26;19993;-42
2024/04/22 04:31:53;;;;;;;;;;;;;;;14.15;53.26;99605.38;5454102;26;19993;-40
2024/04/22 04:34:19;;;;;;;;;;;;;;;14.48;52.61;99602.97;5453528;26;19932;-41
2024/04/22 04:36:44;;;;;;;;;;;;;;;14.92;51.77;99605.28;5453536;26;20370;-41
2024/04/22 04:39:09;;;;;;;;;;;;;;;15.02;50.25;99608.22;5452955;26;19925;-42
2024/04/22 04:41:35;;;;;;;;;;;;;;;15.42;50.91;99615.44;5454460;26;19925;-41
2024/04/22 04:44:00;;;;;;;;;;;;;;;15.64;49.61;99617.47;5448076;26;20221;-43
2024/04/22 04:46:25;;;;;;;;;;;;;;;16.06;48.53;99629.78;5450615;26;20022;-40
2024/04/22 04:48:51;;;;;;;;;;;;;;;16.24;47.99;99634.94;5450335;26;20009;-44
2024/04/22 04:51:16;;;;;;;;;;;;;;;16.55;46.66;99627.34;5449904;26;19937;-43
2024/04/22 04:53:41;;;;;;;;;;;;;;;16.71;46.49;99631.88;5449730;26;19932;-42
2024/04/22 04:56:06;;;;;;;;;;;;;;;16.95;45.42;99637.09;5462116;26;19923;-41
2024/04/22 04:58:32;;;;;;;;;;;;;;;17.24;45.51;99642.31;5473776;26;19947;-42
2024/04/22 05:00:57;;;;;;;;;;;;;;;18.00;44.59;99644.25;5466828;26;19947;-41
2024/04/22 05:03:22;;;;;;;;;;;;;;;17.74;43.42;99650.16;5481835;26;20259;-41
2024/04/22 05:06:00;;;;;;;;;;;;;;;17.72;43.15;99643.41;5475797;26;19924;-42
2024/04/22 05:08:25;;;;;;;;;;;;;;;17.85;43.05;99636.84;5474650;26;19935;-41
2024/04/22 05:10:50;;;;;;;;;;;;;;;17.44;43.74;99637.19;5467598;26;19992;-43
2024/04/22 05:13:16;;;;;;;;;;;;;;;17.88;42.95;99645.22;5478765;26;20538;-42
2024/04/22 05:15:41;;;;;;;;;;;;;;;17.61;42.48;99636.28;5490556;26;19931;-43
2024/04/22 05:18:06;;;;;;;;;;;;;;;17.46;43.48;99651.19;5489621;26;19995;-44
2024/04/22 05:20:31;;;;;;;;;;;;;;;17.84;42.92;99656.69;5490175;26;19996;-43
2024/04/22 05:22:57;;;;;;;;;;;;;;;18.33;41.81;99651.28;5489619;26;19931;-41
2024/04/22 05:25:22;;;;;;;;;;;;;;;18.19;42.25;99652.78;5489765;26;19924;-41
2024/04/22 05:27:47;;;;;;;;;;;;;;;18.77;42.00;99653.75;5489837;26;20347;-43
2024/04/22 05:30:13;;;;;;;;;;;;;;;19.22;40.56;99663.22;5488207;26;19935;-42
2024/04/22 05:32:38;;;;;;;;;;;;;;;18.91;39.93;99668.44;5489099;26;19930;-41
2024/04/22 05:37:48;;;;;;;;;;;;;;;18.54;40.57;99671.09;5490110;26;19931;-43
2024/04/22 05:40:13;;;;;;;;;;;;;;;18.17;41.29;99670.00;5464347;26;19928;-42
2024/04/22 05:42:38;;;;;;;;;;;;;;;19.25;40.27;99670.78;5451982;26;19924;-41
2024/04/22 05:45:04;;;;;;;;;;;;;;;18.52;39.96;99665.16;5452891;26;19932;-40
2024/04/22 05:47:29;;;;;;;;;;;;;;;18.24;40.48;99677.03;5452191;26;19992;-42
2024/04/22 05:49:54;;;;;;;;;;;;;;;18.55;40.04;99683.53;5451676;26;19939;-40
2024/04/22 05:52:21;;;;;;;;;;;;;;;19.33;39.19;99688.34;5452101;26;19925;-48
2024/04/22 05:54:46;;;;;;;;;;;;;;;19.29;39.86;99688.06;5452212;26;19932;-43
2024/04/22 05:57:11;;;;;;;;;;;;;;;20.16;37.53;99689.44;5452267;26;19924;-41
2024/04/22 05:59:36;;;;;;;;;;;;;;;19.45;38.03;99690.84;5451981;26;19931;-43
2024/04/22 06:02:03;;;;;;;;;;;;;;;18.64;39.40;99690.06;5451832;26;19931;-37
2024/04/22 06:04:31;;;;;;;;;;;;;;;19.33;38.87;99699.94;5447516;26;20027;-41
2024/04/22 06:06:56;;;;;;;;;;;;;;;20.00;37.55;99697.53;5452349;26;19996;-44
2024/04/22 06:09:22;;;;;;;;;;;;;;;20.55;38.12;99702.44;5452040;26;20260;-40
2024/04/22 06:11:48;;;;;;;;;;;;;;;20.88;37.03;99703.81;5452081;26;19931;-41
2024/04/22 06:14:13;;;;;;;;;;;;;;;20.41;37.06;99707.56;5455291;26;19924;-42
2024/04/22 06:16:38;;;;;;;;;;;;;;;20.11;37.48;99701.06;5455487;26;20303;-40
2024/04/22 06:19:03;;;;;;;;;;;;;;;20.28;37.30;99693.50;5456000;26;20293;-40
2024/04/22 06:21:29;;;;;;;;;;;;;;;20.65;37.99;99702.47;5454026;26;19924;-41
2024/04/22 06:23:54;;;;;;;;;;;;;;;19.63;38.08;99698.47;5453931;26;19924;-40
2024/04/22 06:26:19;;;;;;;;;;;;;;;20.08;37.74;99710.50;5454001;26;19924;-41
2024/04/22 06:28:45;;;;;;;;;;;;;;;19.75;37.67;99710.97;5455087;26;19924;-42
2024/04/22 06:31:10;;;;;;;;;;;;;;;20.08;37.40;99712.38;5455174;26;19968;-41
2024/04/22 06:33:40;;;;;;;;;;;;;;;19.17;38.30;99719.00;5452587;26;19932;-41
2024/04/22 06:36:05;;;;;;;;;;;;;;;18.91;38.42;99726.94;5452585;26;19925;-42
2024/04/22 06:38:30;;;;;;;;;;;;;;;18.09;40.16;99731.59;5452591;26;19932;-41
2024/04/22 06:40:56;;;;;;;;;;;;;;;18.03;40.84;99724.50;5452667;26;19925;-43
2024/04/22 06:43:21;;;;;;;;;;;;;;;18.61;39.59;99725.59;5452872;26;19924;-44
2024/04/22 06:45:46;;;;;;;;;;;;;;;19.22;39.09;99737.94;5452878;26;20368;-40
2024/04/22 06:48:12;;;;;;;;;;;;;;;19.55;38.72;99734.03;5455361;26;20026;-40
2024/04/22 06:50:37;;;;;;;;;;;;;;;20.13;36.60;99734.03;5456149;26;20368;-42
2024/04/22 06:53:02;;;;;;;;;;;;;;;20.28;37.22;99744.84;5455747;26;19934;-40
2024/04/22 06:55:27;;;;;;;;;;;;;;;20.86;35.62;99743.84;5455039;26;19933;-37
2024/04/22 06:57:53;;;;;;;;;;;;;;;20.86;35.93;99749.25;5455747;26;19924;-39
2024/04/22 07:00:19;;;;;;;;;;;;;;;21.73;34.80;99735.53;5455684;26;20256;-43
2024/04/22 07:02:45;;;;;;;;;;;;;;;22.17;33.95;99740.16;5456009;26;19924;-41
2024/04/22 07:05:11;;;;;;;;;;;;;;;22.37;33.87;99747.41;5455817;26;20010;-41
2024/04/22 07:07:37;;;;;;;;;;;;;;;22.27;33.50;99743.94;5455024;26;19932;-39
2024/04/22 07:10:02;;;;;;;;;;;;;;;21.29;33.49;99745.13;5455357;26;19924;-41
2024/04/22 07:12:28;;;;;;;;;;;;;;;21.06;34.04;99754.63;5455523;26;19924;-41
2024/04/22 07:14:53;;;;;;;;;;;;;;;21.15;34.48;99754.06;5454917;26;20367;-39
2024/04/22 07:17:19;;;;;;;;;;;;;;;21.34;33.93;99757.00;5454690;26;20325;-40
2024/04/22 07:19:44;;;;;;;;;;;;;;;20.65;34.83;99765.47;5454810;26;19948;-41
2024/04/22 07:22:09;;;;;;;;;;;;;;;19.26;35.99;99764.13;5454702;26;19992;-40
2024/04/22 07:24:35;;;;;;;;;;;;;;;20.49;35.47;99771.91;5453958;26;19924;-42
2024/04/22 07:27:00;;;;;;;;;;;;;;;20.65;33.93;99770.88;5454906;26;20305;-41
2024/04/22 07:29:26;;;;;;;;;;;;;;;20.95;34.06;99785.47;5454382;26;19924;-39
2024/04/22 07:31:51;;;;;;;;;;;;;;;21.30;34.52;99786.50;5454731;26;20270;-41
2024/04/22 07:34:17;;;;;;;;;;;;;;;20.62;34.26;99784.09;5454571;26;19924;-40
2024/04/22 07:36:46;;;;;;;;;;;;;;;20.57;34.39;99779.47;5455089;26;19931;-38
2024/04/22 07:39:14;;;;;;;;;;;;;;;20.89;33.84;99779.25;5455200;26;19993;-42
2024/04/22 07:41:39;;;;;;;;;;;;;;;21.05;34.25;99774.63;5454618;26;19928;-42
2024/04/22 07:44:05;;;;;;;;;;;;;;;21.61;33.12;99772.94;5454427;26;20260;-42
2024/04/22 07:46:30;;;;;;;;;;;;;;;22.41;32.72;99774.75;5454729;26;19924;-46
2024/04/22 07:48:56;;;;;;;;;;;;;;;20.54;34.23;99782.72;5453983;26;19936;-40
2024/04/22 07:51:21;;;;;;;;;;;;;;;19.72;34.83;99779.78;5454618;26;19925;-41
2024/04/22 07:53:47;;;;;;;;;;;;;;;18.97;36.49;99784.41;5454129;26;19924;-40
2024/04/22 07:56:15;;;;;;;;;;;;;;;19.53;36.42;99787.47;5454218;26;20335;-45
2024/04/22 07:58:41;;;;;;;;;;;;;;;19.99;35.33;99776.94;5454614;26;20003;-41
2024/04/22 08:01:06;;;;;;;;;;;;;;;20.38;34.40;99784.59;5454018;26;20341;-40
2024/04/22 08:03:32;;;;;;;;;;;;;;;21.00;33.84;99782.78;5454495;26;19930;-41
2024/04/22 08:06:02;;;;;;;;;;;;;;;20.87;33.58;99789.53;5454445;26;19932;-40
2024/04/22 08:08:30;;;;;;;;;;;;;;;19.85;35.33;99787.38;5454280;26;19957;-40
2024/04/22 08:10:55;;;;;;;;;;;;;;;21.26;34.13;99780.03;5453984;26;19925;-42
2024/04/22 08:13:20;;;;;;;;;;;;;;;22.19;32.43;99780.53;5453858;26;20272;-40
2024/04/22 08:15:46;;;;;;;;;;;;;;;21.73;32.64;99768.03;5453959;26;19935;-39
2024/04/22 08:18:14;;;;;;;;;;;;;;;21.61;32.95;99781.88;5454028;26;20337;-41
2024/04/22 08:20:39;;;;;;;;;;;;;;;20.88;32.58;99776.81;5453504;26;19925;-38
2024/04/22 08:23:04;;;;;;;;;;;;;;;21.95;32.07;99775.81;5453726;26;20242;-41
2024/04/22 08:25:30;;;;;;;;;;;;;;;22.55;31.84;99773.03;5453715;26;20260;-43
2024/04/22 08:27:55;;;;;;;;;;;;;;;21.46;33.72;99769.19;5452627;26;19924;-39
2024/04/22 08:30:20;;;;;;;;;;;;;;;20.72;33.86;99772.50;5452885;26;19935;-39
2024/04/22 08:32:45;;;;;;;;;;;;;;;21.26;34.06;99766.50;5453447;26;19932;-40
2024/04/22 08:35:11;;;;;;;;;;;;;;;21.79;32.56;99758.78;5451292;26;19932;-42
2024/04/22 08:37:36;;;;;;;;;;;;;;;21.43;33.13;99774.31;5452823;26;20344;-41
2024/04/22 08:40:01;;;;;;;;;;;;;;;21.91;32.92;99771.19;5452982;26;19942;-39
2024/04/22 08:42:27;;;;;;;;;;;;;;;22.06;32.34;99760.28;5452976;26;19993;-41
2024/04/22 08:44:52;;;;;;;;;;;;;;;21.67;33.51;99766.44;5453271;26;19994;-40
2024/04/22 08:47:18;;;;;;;;;;;;;;;21.03;34.26;99774.09;5453975;26;20357;-43
2024/04/22 08:49:43;;;;;;;;;;;;;;;21.53;33.91;99768.09;5453564;26;19943;-43
2024/04/22 08:52:09;;;;;;;;;;;;;;;21.43;33.15;99775.13;5453603;26;19932;-41
2024/04/22 08:54:35;;;;;;;;;;;;;;;21.65;32.92;99764.00;5453863;26;19924;-40
2024/04/22 08:57:00;;;;;;;;;;;;;;;22.06;32.77;99757.56;5453438;26;19935;-43
2024/04/22 08:59:26;;;;;;;;;;;;;;;23.41;31.43;99762.50;5453163;26;19925;-40
2024/04/22 09:02:01;;;;;;;;;;;;;;;23.53;30.21;99753.97;5452791;26;20330;-42
2024/04/22 09:04:26;;;;;;;;;;;;;;;23.25;30.21;99754.81;5453568;26;19925;-42
2024/04/22 09:06:52;;;;;;;;;;;;;;;22.52;31.57;99743.75;5453477;26;19924;-45
2024/04/22 09:09:17;;;;;;;;;;;;;;;22.32;31.68;99752.06;5454084;26;20033;-41
2024/04/22 09:11:42;;;;;;;;;;;;;;;23.00;31.44;99743.91;5453434;26;19925;-43
2024/04/22 09:14:07;;;;;;;;;;;;;;;23.17;31.08;99748.09;5453044;26;19993;-42
2024/04/22 09:16:36;;;;;;;;;;;;;;;22.31;31.16;99750.41;5453209;26;19937;-42
2024/04/22 09:19:02;;;;;;;;;;;;;;;22.19;31.57;99739.91;5452291;26;19924;-42
2024/04/22 09:21:27;;;;;;;;;;;;;;;22.59;31.05;99749.66;5453143;26;19932;-42
2024/04/22 09:23:52;;;;;;;;;;;;;;;22.73;31.46;99749.03;5453126;26;19932;-45
2024/04/22 09:26:18;;;;;;;;;;;;;;;23.04;31.44;99744.19;5453118;26;19932;-40
2024/04/22 09:28:44;;;;;;;;;;;;;;;23.55;30.13;99737.38;5452841;26;19936;-43
2024/04/22 09:31:09;;;;;;;;;;;;;;;23.10;30.31;99736.78;5452363;26;19925;-41
2024/04/22 09:33:35;;;;;;;;;;;;;;;22.64;31.89;99741.50;5451141;26;19933;-41
2024/04/22 09:36:04;;;;;;;;;;;;;;;22.91;30.81;99744.81;5451926;26;19924;-43
2024/04/22 09:38:32;;;;;;;;;;;;;;;22.63;31.30;99734.44;5451791;26;19932;-38
2024/04/22 09:40:59;;;;;;;;;;;;;;;23.32;31.02;99741.72;5451286;26;19931;-41
2024/04/22 09:43:24;;;;;;;;;;;;;;;23.30;30.81;99739.28;5452104;26;20001;-41
2024/04/22 09:45:51;;;;;;;;;;;;;;;23.85;29.95;99738.13;5452525;26;19936;-40
2024/04/22 09:48:16;;;;;;;;;;;;;;;24.73;28.90;99749.34;5451611;26;20387;-42
2024/04/22 09:50:43;;;;;;;;;;;;;;;25.04;28.44;99743.41;5452170;26;19925;-39
2024/04/22 09:53:09;;;;;;;;;;;;;;;24.76;27.88;99740.59;5451748;26;19993;-41
2024/04/22 09:55:36;;;;;;;;;;;;;;;23.99;28.61;99733.59;5451927;26;19924;-41
2024/04/22 09:58:02;;;;;;;;;;;;;;;23.88;28.90;99735.63;5452506;26;19966;-43
2024/04/22 10:00:27;;;;;;;;;;;;;;;23.90;28.09;99727.19;5453139;26;19924;-44
2024/04/22 10:02:52;;;;;;;;;;;;;;;24.40;28.23;99731.06;5452189;26;20020;-41
2024/04/22 10:05:21;;;;;;;;;;;;;;;24.20;28.52;99721.31;5452357;26;19924;-41
2024/04/22 10:07:47;;;;;;;;;;;;;;;24.87;27.71;99723.00;5452011;26;19932;-40
2024/04/22 10:10:13;;;;;;;;;;;;;;;25.58;27.23;99717.31;5452445;26;19925;-42
2024/04/22 10:12:38;;;;;;;;;;;;;;;24.39;28.50;99721.31;5452552;26;19954;-40
2024/04/22 10:15:09;;;;;;;;;;;;;;;24.21;28.83;99727.56;5452100;26;20284;-40
2024/04/22 10:17:35;;;;;;;;;;;;;;;25.47;27.45;99714.00;5452096;26;19932;-40
2024/04/22 10:20:00;;;;;;;;;;;;;;;25.84;26.02;99705.91;5452254;26;19986;-41
2024/04/22 10:22:32;;;;;;;;;;;;;;;26.25;26.86;99705.78;5452299;26;20358;-39
2024/04/22 10:24:58;;;;;;;;;;;;;;;26.05;26.84;99707.06;5451903;26;19932;-40
2024/04/22 10:27:23;;;;;;;;;;;;;;;25.63;26.81;99717.22;5451843;26;19924;-43
2024/04/22 10:29:49;;;;;;;;;;;;;;;24.50;28.33;99710.25;5451857;26;19992;-40
2024/04/22 10:32:14;;;;;;;;;;;;;;;24.45;29.15;99713.88;5451829;26;19925;-40
2024/04/22 10:34:43;;;;;;;;;;;;;;;24.97;28.65;99713.84;5451382;26;19931;-39
2024/04/22 10:37:08;;;;;;;;;;;;;;;25.66;27.20;99702.97;5451699;26;20328;-42
2024/04/22 10:39:34;;;;;;;;;;;;;;;26.30;26.48;99705.66;5451747;26;19924;-41
2024/04/22 10:41:59;;;;;;;;;;;;;;;26.08;27.26;99709.19;5451447;26;19993;-43
2024/04/22 10:44:24;;;;;;;;;;;;;;;26.57;26.61;99701.19;5451494;26;20038;-40
2024/04/22 10:46:50;;;;;;;;;;;;;;;25.90;26.12;99694.56;5451937;26;19931;-41
2024/04/22 10:49:17;;;;;;;;;;;;;;;26.28;26.05;99697.00;5451226;26;19934;-43
2024/04/22 10:51:42;;;;;;;;;;;;;;;26.19;25.78;99696.13;5451025;26;19931;-42
2024/04/22 10:54:07;;;;;;;;;;;;;;;26.63;25.76;99699.19;5450868;26;19925;-39
2024/04/22 10:56:33;;;;;;;;;;;;;;;26.97;25.58;99697.75;5452423;26;19924;-41
2024/04/22 10:58:59;;;;;;;;;;;;;;;27.13;25.72;99709.06;5452545;26;19932;-42
2024/04/22 11:01:25;;;;;;;;;;;;;;;26.47;25.26;99698.72;5455311;26;19924;-42
2024/04/22 11:03:51;;;;;;;;;;;;;;;26.84;25.96;99697.53;5455862;26;20001;-41
2024/04/22 11:06:16;;;;;;;;;;;;;;;26.73;25.91;99704.38;5454963;26;19937;-44
2024/04/22 11:08:42;;;;;;;;;;;;;;;27.08;25.70;99694.44;5455005;26;19931;-43
2024/04/22 11:11:08;;;;;;;;;;;;;;;26.00;25.66;99706.38;5455466;26;19925;-41
2024/04/22 11:13:34;;;;;;;;;;;;;;;25.47;26.60;99705.03;5454744;26;19925;-43
2024/04/22 11:16:09;;;;;;;;;;;;;;;24.63;27.56;99706.00;5455241;26;20317;-41
2024/04/22 11:18:35;;;;;;;;;;;;;;;25.42;26.45;99699.66;5454752;26;20001;-42
2024/04/22 11:21:00;;;;;;;;;;;;;;;26.31;26.57;99692.81;5454502;26;19936;-41
2024/04/22 11:23:25;;;;;;;;;;;;;;;25.71;26.44;99689.25;5454410;26;20748;-39
2024/04/22 11:25:50;;;;;;;;;;;;;;;25.80;26.41;99689.34;5455039;26;19924;-43
2024/04/22 11:28:16;;;;;;;;;;;;;;;25.12;26.83;99689.06;5454229;26;19932;-38
2024/04/22 11:30:41;;;;;;;;;;;;;;;24.18;28.00;99690.13;5453962;26;19924;-40
2024/04/22 11:33:07;;;;;;;;;;;;;;;24.68;28.36;99697.78;5454068;26;19933;-40
2024/04/22 11:35:35;;;;;;;;;;;;;;;24.86;27.28;99694.16;5454398;26;19953;-43
2024/04/22 11:38:01;;;;;;;;;;;;;;;24.08;28.00;99696.47;5454513;26;20353;-41
2024/04/22 11:40:27;;;;;;;;;;;;;;;24.59;27.50;99695.72;5454138;26;19925;-39
2024/04/22 11:42:52;;;;;;;;;;;;;;;24.12;28.51;99694.81;5454804;26;19924;-40
2024/04/22 11:45:18;;;;;;;;;;;;;;;25.12;27.25;99696.41;5454203;26;19925;-40
2024/04/22 11:47:43;;;;;;;;;;;;;;;25.70;27.15;99686.81;5455148;26;19925;-40
2024/04/22 11:50:08;;;;;;;;;;;;;;;25.32;26.68;99696.06;5454519;26;19928;-40
2024/04/22 11:52:34;;;;;;;;;;;;;;;24.19;29.01;99691.72;5453997;26;19932;-40
2024/04/22 11:54:59;;;;;;;;;;;;;;;24.36;28.15;99685.75;5454144;26;20338;-44
2024/04/22 11:57:25;;;;;;;;;;;;;;;24.48;28.35;99680.63;5453743;26;19933;-40
2024/04/22 11:59:50;;;;;;;;;;;;;;;24.30;27.98;99679.56;5454226;26;19931;-41
2024/04/22 12:02:16;;;;;;;;;;;;;;;24.64;28.05;99680.44;5453885;26;19929;-38
2024/04/22 12:04:42;;;;;;;;;;;;;;;25.31;28.51;99669.94;5453986;26;19925;-46
2024/04/22 12:07:07;;;;;;;;;;;;;;;25.94;27.11;99670.25;5454076;26;20410;-42
2024/04/22 12:09:32;;;;;;;;;;;;;;;25.71;27.04;99669.38;5453488;26;19948;-39
2024/04/22 12:11:58;;;;;;;;;;;;;;;25.60;26.25;99673.44;5454331;26;19931;-44
2024/04/22 12:14:23;;;;;;;;;;;;;;;24.54;28.11;99675.94;5453824;26;19949;-42
2024/04/22 12:16:48;;;;;;;;;;;;;;;25.11;27.65;99679.28;5453541;26;19931;-42
2024/04/22 12:19:14;;;;;;;;;;;;;;;24.47;28.34;99670.06;5453702;26;19932;-42
2024/04/22 12:21:39;;;;;;;;;;;;;;;24.16;28.96;99670.53;5453546;26;19925;-40
2024/04/22 12:24:04;;;;;;;;;;;;;;;24.19;28.20;99678.13;5454076;26;20054;-39
2024/04/22 12:26:29;;;;;;;;;;;;;;;24.05;28.64;99672.63;5454061;26;19961;-41
2024/04/22 12:28:55;;;;;;;;;;;;;;;23.47;29.34;99678.28;5453524;26;19924;-41
2024/04/22 12:31:20;;;;;;;;;;;;;;;23.54;29.09;99674.09;5453904;26;19931;-39
2024/04/22 12:33:45;;;;;;;;;;;;;;;24.21;28.29;99689.50;5454163;26;19993;-40
2024/04/22 12:36:10;;;;;;;;;;;;;;;24.83;27.35;99677.63;5453923;26;19924;-43
2024/04/22 12:38:36;;;;;;;;;;;;;;;25.32;28.25;99660.66;5453865;26;20349;-40
2024/04/22 12:41:01;;;;;;;;;;;;;;;24.93;28.45;99661.91;5453503;26;19990;-45
2024/04/22 12:43:27;;;;;;;;;;;;;;;25.13;27.43;99655.28;5454306;26;19936;-41